This is the latest recevied weather packets stored in our database for station/object WX2P-13. If no packets are shown the sender has not sent any weather packets the latest 1 day(s).
| Time | Temp. | Humidity | Pressure | Rain* | Wind** | Luminosity | Snow |
|---|---|---|---|---|---|---|---|
| 1777988186 | 25° C | 74% | 1016.7 hPa | 0 mm | 0.45 m/s, 171° | 558 W/m² | - |
| 1777987881 | 24.44° C | 74% | 1016.6 hPa | 0 mm | 1.79 m/s, 234° | 458 W/m² | - |
| 1777987578 | 24.44° C | 75% | 1016.5 hPa | 0 mm | 0 m/s | 295 W/m² | - |
| 1777987276 | 23.89° C | 76% | 1016.6 hPa | 0 mm | 0.45 m/s, 323° | 357 W/m² | - |
| 1777986972 | 23.89° C | 77% | 1016.7 hPa | 0 mm | 1.79 m/s, 64° | 357 W/m² | - |
| 1777986670 | 22.78° C | 80% | 1016.8 hPa | 0 mm | 0 m/s | 344 W/m² | - |
| 1777986368 | 22.22° C | 81% | 1016.8 hPa | 0 mm | 0.45 m/s, 84° | 159 W/m² | - |
| 1777986066 | 22.22° C | 81% | 1016.8 hPa | 0 mm | 0.45 m/s, 126° | 64 W/m² | - |
| 1777985762 | 22.78° C | 79% | 1016.7 hPa | 0 mm | 0.45 m/s, 94° | 72 W/m² | - |
| 1777985459 | 22.22° C | 81% | 1016.7 hPa | 0 mm | 0 m/s | 61 W/m² | - |
| 1777985155 | 22.22° C | 80% | 1016.7 hPa | 0 mm | 0.89 m/s, 81° | 175 W/m² | - |
| 1777984852 | 21.67° C | 81% | 1016.5 hPa | 0 mm | 0 m/s | 58 W/m² | - |
| 1777984548 | 20.56° C | 84% | 1016.6 hPa | 0 mm | 0 m/s | 196 W/m² | - |
| 1777984245 | 20° C | 85% | 1016.7 hPa | 0 mm | 0 m/s | 41 W/m² | - |
| 1777983942 | 20.56° C | 84% | 1016.7 hPa | 0 mm | 0.45 m/s, 139° | 44 W/m² | - |
| 1777983639 | 20° C | 85% | 1017 hPa | 0 mm | 0.45 m/s, 183° | 53 W/m² | - |
| 1777983335 | 19.44° C | 87% | 1016.7 hPa | 0 mm | 0 m/s | 39 W/m² | - |
| 1777983032 | 18.89° C | 88% | 1016.6 hPa | 0 mm | 0 m/s | 40 W/m² | - |
| 1777982729 | 18.89° C | 89% | 1016.7 hPa | 0 mm | 0 m/s | 38 W/m² | - |
| 1777982424 | 18.33° C | 91% | 1016.6 hPa | 0 mm | 0 m/s | 29 W/m² | - |
| 1777982119 | 17.78° C | 93% | 1016.6 hPa | 0 mm | 0 m/s | 39 W/m² | - |
| 1777981817 | 17.22° C | 95% | 1016.6 hPa | 0 mm | 0 m/s | 52 W/m² | - |
| 1777981514 | 17.22° C | 96% | 1016.5 hPa | 0 mm | 0 m/s | 47 W/m² | - |
| 1777981210 | 16.67° C | 96% | 1016.3 hPa | 0 mm | 0 m/s | 49 W/m² | - |
| 1777980906 | 16.11° C | 96% | 1016.4 hPa | 0 mm | 0 m/s | 33 W/m² | - |
* Rain latest hour (hover to see other rain measurements)
** Current wind speed in m/s (hover to see current wind gust speed)